Portada
METAR-TAF:

METAR-TAF

Aeroports :

Aeroport Internacional Elefthérios Venizelos

Atenes, Grècia

latitud: 37-56N, longitud: 023-56E, altitud: 94 m

Observació

L'informe es va fer fa 16 minuts, a les 00:50 UTC
Vent 1 kt del Nord/Nord-Oest
Temperatura 6°C
Humitat 87%
Pressió 1012 hPa
Visibilitat 10 km o més
sense núvols per sota de 1500 mi sense presència de cumulonimbus.

METAR: LGAV 300050Z 34001KT CAVOK 06/04 Q1012 NOSIG

Hora: 04:06 (01:06 UTC)

Pronòstic

L'informe es va fer fa 2 hores i 6 minuts, a les 23:00 UTC
Pronòstic vàlid del 30 a les 00 UTC al 30 a les 24 UTC
Vent 3 kt amb direcció variable
Visibilitat 10 km o més
Escasses núvols a una alçada de 1800 ft
Núvols disperses a una alçada de 3000 ft
Temporalment
l' 30 a les 00 UTC al 30 a les 06 UTC
Núvols disperses a una alçada de 1000 ft
Evolucionant progressivament
l' 30 a les 09 UTC al 30 a les 11 UTC
Vent 10 kt del Nord-Est

TAF: LGAV 292300Z 3000/3024 VRB03KT 9999 FEW018 SCT030 TEMPO 3000/3006 SCT010 BECMG 3009/3011 04010KT

Observacions i pronòstics meteorològics de més de 4000 aeroports (METAR i TAF).

Les estacions disponibles són els punts grocs i vermells al mapa.

Posi el ratolí al punt desitjat per veure el nom de l'estació.

Feu clic per veure les observacions i els pronòstics meteorològics.

Per canviar el mapa: feu clic els botons verds amb una creu de color negre per apropar; al botó verd amb un guió per allunyar la imatge; o en les fletxes verdes per a mapes adjacents.


METAR-TAF: